Time;durP1;ratioP1;P1;durP2;ratioP2;P2;SDS_P1;SDS_P2;PMS_P1;PMS_P2;Temp;Humidity;BMP_temperature;BMP_pressure;BME280_temperature;BME280_humidity;BME280_pressure;Samples;Min_cycle;Max_cycle;Signal;HPM_P1;HPM_P2
2024/04/18 00:01:13;;;;;;;1.60;1.50;;;;;;;;;;5676279;25;20227;-48
2024/04/18 00:03:39;;;;;;;2.22;2.13;;;;;;;;;;5676882;25;20215;-49
2024/04/18 00:06:11;;;;;;;2.75;2.35;;;;;;;;;;5676347;25;20321;-48
2024/04/18 00:08:38;;;;;;;1.98;1.85;;;;;;;;;;5676410;25;20223;-48
2024/04/18 00:11:08;;;;;;;2.25;2.05;;;;;;;;;;5676208;25;20740;-49
2024/04/18 00:13:37;;;;;;;2.28;1.67;;;;;;;;;;5656576;25;20221;-48
2024/04/18 00:16:04;;;;;;;2.17;1.98;;;;;;;;;;5655818;25;20510;-49
2024/04/18 00:18:33;;;;;;;2.10;1.90;;;;;;;;;;5659957;25;20279;-50
2024/04/18 00:21:00;;;;;;;2.60;1.85;;;;;;;;;;5676351;25;20687;-52
2024/04/18 00:23:32;;;;;;;2.00;1.70;;;;;;;;;;5676216;25;20687;-48
2024/04/18 00:25:58;;;;;;;2.05;1.88;;;;;;;;;;5667167;25;20220;-48
2024/04/18 00:28:27;;;;;;;2.00;1.90;;;;;;;;;;5676175;25;20691;-47
2024/04/18 00:30:54;;;;;;;2.58;1.90;;;;;;;;;;5667018;25;20279;-49
2024/04/18 00:33:23;;;;;;;1.80;1.70;;;;;;;;;;5636977;25;20288;-48
2024/04/18 00:35:49;;;;;;;2.70;2.50;;;;;;;;;;5667946;25;20204;-50
2024/04/18 00:38:19;;;;;;;2.88;2.60;;;;;;;;;;5675830;25;20223;-49
2024/04/18 00:40:48;;;;;;;3.17;2.75;;;;;;;;;;5675683;25;20212;-48
2024/04/18 00:43:17;;;;;;;2.30;2.13;;;;;;;;;;5675766;25;20223;-48
2024/04/18 00:45:44;;;;;;;2.58;2.38;;;;;;;;;;5675832;25;20238;-50
2024/04/18 00:48:13;;;;;;;2.60;2.40;;;;;;;;;;5675972;25;20208;-47
2024/04/18 00:50:40;;;;;;;2.95;2.75;;;;;;;;;;5675629;25;20211;-48
2024/04/18 00:53:10;;;;;;;2.70;2.50;;;;;;;;;;5675626;25;20784;-48
2024/04/18 00:55:39;;;;;;;3.00;2.38;;;;;;;;;;5675583;25;20204;-49
2024/04/18 00:58:11;;;;;;;4.82;2.63;;;;;;;;;;5675483;25;20272;-48
2024/04/18 01:00:39;;;;;;;2.97;2.78;;;;;;;;;;5663925;25;20267;-49
2024/04/18 01:03:08;;;;;;;3.58;3.00;;;;;;;;;;5639500;25;20225;-51
2024/04/18 01:05:36;;;;;;;2.80;2.60;;;;;;;;;;5675512;25;20246;-50
2024/04/18 01:08:05;;;;;;;3.13;2.83;;;;;;;;;;5675296;25;20212;-48
2024/04/18 01:10:32;;;;;;;3.00;2.70;;;;;;;;;;5676462;25;20237;-48
2024/04/18 01:13:02;;;;;;;2.97;2.63;;;;;;;;;;5657279;25;20228;-48
2024/04/18 01:15:32;;;;;;;3.15;2.95;;;;;;;;;;5678893;25;20254;-47
2024/04/18 01:18:01;;;;;;;3.55;3.25;;;;;;;;;;5679283;25;20695;-49
2024/04/18 01:20:27;;;;;;;3.20;2.90;;;;;;;;;;5679075;25;20208;-51
2024/04/18 01:22:56;;;;;;;3.33;3.03;;;;;;;;;;5678984;25;20223;-52
2024/04/18 01:25:23;;;;;;;4.53;4.13;;;;;;;;;;5662822;25;20573;-49
2024/04/18 01:27:55;;;;;;;4.40;4.00;;;;;;;;;;5679043;25;20250;-50
2024/04/18 01:30:21;;;;;;;4.43;3.65;;;;;;;;;;5678842;25;20254;-50
2024/04/18 01:32:50;;;;;;;4.72;4.32;;;;;;;;;;5653975;25;20282;-48
2024/04/18 01:35:17;;;;;;;5.28;4.45;;;;;;;;;;5678736;25;20370;-47
2024/04/18 01:37:46;;;;;;;4.75;4.35;;;;;;;;;;5678930;25;20275;-48
2024/04/18 01:40:13;;;;;;;5.07;4.68;;;;;;;;;;5678566;25;20262;-49
2024/04/18 01:42:42;;;;;;;4.30;3.97;;;;;;;;;;5678543;25;20231;-49
2024/04/18 01:45:11;;;;;;;5.13;4.43;;;;;;;;;;5678605;25;20204;-50
2024/04/18 01:47:40;;;;;;;5.45;4.95;;;;;;;;;;5678750;25;20675;-49
2024/04/18 01:53:14;;;;;;;5.38;4.88;;;;;;;;;;5654585;25;20270;-52
2024/04/18 01:55:40;;;;;;;5.22;4.72;;;;;;;;;;5669385;25;20731;-50
2024/04/18 01:58:09;;;;;;;4.32;4.03;;;;;;;;;;5678555;25;20735;-48
2024/04/18 02:00:43;;;;;;;5.78;5.28;;;;;;;;;;5678880;25;20232;-49
2024/04/18 02:03:12;;;;;;;5.38;4.88;;;;;;;;;;5655228;25;20343;-50
2024/04/18 02:05:39;;;;;;;5.72;4.90;;;;;;;;;;5678416;25;20251;-52
2024/04/18 02:08:08;;;;;;;5.07;4.57;;;;;;;;;;5678350;25;20270;-52
2024/04/18 02:10:35;;;;;;;5.70;5.20;;;;;;;;;;5678359;25;20258;-52
2024/04/18 02:13:04;;;;;;;5.68;5.25;;;;;;;;;;5678231;25;20283;-50
2024/04/18 02:15:32;;;;;;;5.28;4.82;;;;;;;;;;5678051;25;20270;-50
2024/04/18 02:18:03;;;;;;;5.00;4.60;;;;;;;;;;5678048;25;20606;-51
2024/04/18 02:20:30;;;;;;;5.38;4.53;;;;;;;;;;5677358;25;20267;-49
2024/04/18 02:22:59;;;;;;;4.75;4.38;;;;;;;;;;5671269;25;20624;-50
2024/04/18 02:25:25;;;;;;;4.60;4.30;;;;;;;;;;5678427;25;20239;-48
2024/04/18 02:27:54;;;;;;;7.32;4.50;;;;;;;;;;5670979;25;20429;-49
2024/04/18 02:30:21;;;;;;;5.03;4.63;;;;;;;;;;5654880;25;20262;-50
2024/04/18 02:32:50;;;;;;;5.07;4.68;;;;;;;;;;5671144;25;20239;-47
2024/04/18 02:35:19;;;;;;;5.03;4.63;;;;;;;;;;5661849;25;20250;-49
2024/04/18 02:37:48;;;;;;;4.88;4.38;;;;;;;;;;5677790;25;20310;-50
2024/04/18 02:40:15;;;;;;;4.70;4.30;;;;;;;;;;5663591;25;20254;-52
2024/04/18 02:42:45;;;;;;;5.13;4.63;;;;;;;;;;5638695;25;20308;-50
2024/04/18 02:45:11;;;;;;;5.55;5.05;;;;;;;;;;5652200;25;20216;-51
2024/04/18 02:47:40;;;;;;;6.00;5.45;;;;;;;;;;5670857;25;20231;-48
2024/04/18 02:50:07;;;;;;;7.40;6.07;;;;;;;;;;5677743;25;20776;-51
2024/04/18 02:52:39;;;;;;;6.72;4.95;;;;;;;;;;5677627;25;20281;-49
2024/04/18 02:55:06;;;;;;;5.00;4.40;;;;;;;;;;5677677;25;20249;-53
2024/04/18 02:57:35;;;;;;;5.70;5.20;;;;;;;;;;5677457;25;20740;-49
2024/04/18 03:00:02;;;;;;;5.45;4.85;;;;;;;;;;5677883;25;20246;-48
2024/04/18 03:02:31;;;;;;;5.75;5.25;;;;;;;;;;5675377;25;20316;-50
2024/04/18 03:04:58;;;;;;;4.90;4.40;;;;;;;;;;5664534;25;20212;-49
2024/04/18 03:07:27;;;;;;;5.55;5.15;;;;;;;;;;5669956;25;20277;-48
2024/04/18 03:09:56;;;;;;;4.95;4.55;;;;;;;;;;5645259;25;20232;-48
2024/04/18 03:12:25;;;;;;;5.13;4.72;;;;;;;;;;5667737;25;20227;-49
2024/04/18 03:14:52;;;;;;;4.85;4.45;;;;;;;;;;5677271;25;20571;-49
2024/04/18 03:17:21;;;;;;;5.93;5.35;;;;;;;;;;5660999;25;20227;-48
2024/04/18 03:19:47;;;;;;;4.82;4.43;;;;;;;;;;5663729;25;20263;-49
2024/04/18 03:22:16;;;;;;;5.20;4.80;;;;;;;;;;5652080;25;20340;-49
2024/04/18 03:24:43;;;;;;;5.25;4.53;;;;;;;;;;5677191;25;20262;-48
2024/04/18 03:27:15;;;;;;;5.32;4.90;;;;;;;;;;5676993;25;20208;-48
2024/04/18 03:29:41;;;;;;;5.47;4.97;;;;;;;;;;5676886;25;20254;-50
2024/04/18 03:32:10;;;;;;;5.13;4.63;;;;;;;;;;5669818;25;20832;-52
2024/04/18 03:34:37;;;;;;;4.80;4.43;;;;;;;;;;5676899;25;20687;-48
2024/04/18 03:37:06;;;;;;;4.65;4.25;;;;;;;;;;5677094;25;20310;-49
2024/04/18 03:39:35;;;;;;;4.95;4.55;;;;;;;;;;5677166;25;20207;-49
2024/04/18 03:42:04;;;;;;;5.70;5.22;;;;;;;;;;5676695;25;20282;-50
2024/04/18 03:44:36;;;;;;;4.85;4.45;;;;;;;;;;5676817;25;20220;-50
2024/04/18 03:47:06;;;;;;;5.25;4.80;;;;;;;;;;5676885;25;20250;-48
2024/04/18 03:49:35;;;;;;;5.90;5.40;;;;;;;;;;5660425;25;20219;-47
2024/04/18 03:52:01;;;;;;;5.05;4.65;;;;;;;;;;5660516;25;20618;-52
2024/04/18 03:54:30;;;;;;;6.70;6.18;;;;;;;;;;5668587;25;20213;-52
2024/04/18 03:56:57;;;;;;;5.15;4.55;;;;;;;;;;5662889;25;20645;-50
2024/04/18 03:59:26;;;;;;;4.95;4.55;;;;;;;;;;5676500;25;20208;-49
2024/04/18 04:01:55;;;;;;;5.60;5.10;;;;;;;;;;5672551;25;20235;-49
2024/04/18 04:04:24;;;;;;;6.07;5.55;;;;;;;;;;5676247;25;20737;-49
2024/04/18 04:06:50;;;;;;;6.20;5.60;;;;;;;;;;5676342;25;20236;-50
2024/04/18 04:09:20;;;;;;;5.70;5.20;;;;;;;;;;5671217;25;20306;-49
2024/04/18 04:11:46;;;;;;;5.35;4.95;;;;;;;;;;5666384;25;20552;-51
2024/04/18 04:14:15;;;;;;;7.80;5.95;;;;;;;;;;5676536;25;20280;-49
2024/04/18 04:16:42;;;;;;;6.57;5.97;;;;;;;;;;5669482;25;20276;-49
2024/04/18 04:19:14;;;;;;;7.60;6.88;;;;;;;;;;5676129;25;20242;-49
2024/04/18 04:21:40;;;;;;;6.82;6.22;;;;;;;;;;5676128;25;20224;-49
2024/04/18 04:24:09;;;;;;;7.13;6.53;;;;;;;;;;5676367;25;20211;-48
2024/04/18 04:26:36;;;;;;;6.60;6.00;;;;;;;;;;5666013;25;20221;-49
2024/04/18 04:29:05;;;;;;;7.30;6.60;;;;;;;;;;5654248;25;20211;-49
2024/04/18 04:31:31;;;;;;;6.40;5.80;;;;;;;;;;5675744;25;20240;-50
2024/04/18 04:34:01;;;;;;;7.63;6.82;;;;;;;;;;5675754;25;20305;-50
2024/04/18 04:36:30;;;;;;;6.07;5.57;;;;;;;;;;5670483;25;20258;-51
2024/04/18 04:38:59;;;;;;;6.85;6.15;;;;;;;;;;5675681;25;20236;-52
2024/04/18 04:41:26;;;;;;;7.22;6.55;;;;;;;;;;5636728;25;20296;-53
2024/04/18 04:43:55;;;;;;;6.72;6.10;;;;;;;;;;5660390;25;20256;-51
2024/04/18 04:46:22;;;;;;;8.00;6.60;;;;;;;;;;5678842;25;20228;-54
2024/04/18 04:48:51;;;;;;;7.00;6.30;;;;;;;;;;5669848;25;20610;-51
2024/04/18 04:51:17;;;;;;;6.70;6.10;;;;;;;;;;5679455;25;20863;-49
2024/04/18 04:53:49;;;;;;;6.72;6.07;;;;;;;;;;5679444;25;20275;-49
2024/04/18 04:56:15;;;;;;;7.43;6.78;;;;;;;;;;5663157;25;20247;-53
2024/04/18 04:58:44;;;;;;;6.30;5.70;;;;;;;;;;5651800;25;20323;-49
2024/04/18 05:01:11;;;;;;;6.85;6.15;;;;;;;;;;5640345;25;20289;-49
2024/04/18 05:03:40;;;;;;;6.70;6.10;;;;;;;;;;5676531;25;20298;-48
2024/04/18 05:06:07;;;;;;;7.03;6.32;;;;;;;;;;5679289;25;20208;-52
2024/04/18 05:08:36;;;;;;;7.55;6.30;;;;;;;;;;5679398;25;20296;-50
2024/04/18 05:11:05;;;;;;;6.00;5.50;;;;;;;;;;5679291;25;20675;-49
2024/04/18 05:13:34;;;;;;;7.20;6.50;;;;;;;;;;5678945;25;20704;-52
2024/04/18 05:16:01;;;;;;;7.47;6.78;;;;;;;;;;5672293;25;20216;-49
2024/04/18 05:18:30;;;;;;;6.85;6.22;;;;;;;;;;5641334;25;20213;-49
2024/04/18 05:20:56;;;;;;;8.27;7.47;;;;;;;;;;5679132;25;20220;-50
2024/04/18 05:23:25;;;;;;;6.88;6.28;;;;;;;;;;5646547;25;20532;-51
2024/04/18 05:25:52;;;;;;;6.63;6.03;;;;;;;;;;5669104;25;20251;-52
2024/04/18 05:28:30;;;;;;;7.72;6.57;;;;;;;;;;5678934;25;20258;-51
2024/04/18 05:31:03;;;;;;;6.88;6.28;;;;;;;;;;5677897;25;20270;-51
2024/04/18 05:33:32;;;;;;;6.72;6.13;;;;;;;;;;5639981;25;20225;-53
2024/04/18 05:36:02;;;;;;;6.80;6.13;;;;;;;;;;5640006;25;20201;-49
2024/04/18 05:38:31;;;;;;;7.82;6.38;;;;;;;;;;5647280;25;20204;-50
2024/04/18 05:41:00;;;;;;;8.02;7.18;;;;;;;;;;5669317;25;20224;-49
2024/04/18 05:43:32;;;;;;;6.75;6.10;;;;;;;;;;5657132;25;20236;-49
2024/04/18 05:46:01;;;;;;;7.50;6.90;;;;;;;;;;5679059;25;20741;-53
2024/04/18 05:48:30;;;;;;;7.50;6.80;;;;;;;;;;5678725;25;20208;-48
2024/04/18 05:50:59;;;;;;;6.35;5.75;;;;;;;;;;5679086;25;20327;-51
2024/04/18 05:53:28;;;;;;;7.18;6.47;;;;;;;;;;5678669;25;20216;-50
2024/04/18 05:55:58;;;;;;;6.38;5.78;;;;;;;;;;5677125;25;20208;-50
2024/04/18 05:58:28;;;;;;;7.25;6.15;;;;;;;;;;5678714;25;20204;-51
2024/04/18 06:01:00;;;;;;;7.15;6.47;;;;;;;;;;5668471;25;20707;-49
2024/04/18 06:03:30;;;;;;;7.03;6.43;;;;;;;;;;5639806;25;20746;-49
2024/04/18 06:05:59;;;;;;;6.72;5.50;;;;;;;;;;5670438;25;20254;-50
2024/04/18 06:08:28;;;;;;;6.32;5.72;;;;;;;;;;5678302;25;20729;-51
2024/04/18 06:10:57;;;;;;;5.68;5.18;;;;;;;;;;5653596;25;20221;-51
2024/04/18 06:13:27;;;;;;;6.05;5.55;;;;;;;;;;5677908;25;20263;-49
2024/04/18 06:15:56;;;;;;;6.82;6.22;;;;;;;;;;5678203;25;20224;-49
2024/04/18 06:18:29;;;;;;;5.75;5.25;;;;;;;;;;5678118;25;20258;-50
2024/04/18 06:20:58;;;;;;;6.60;5.90;;;;;;;;;;5678206;25;20212;-50
2024/04/18 06:23:27;;;;;;;6.20;5.60;;;;;;;;;;5678232;25;20270;-48
2024/04/18 06:25:56;;;;;;;5.03;4.60;;;;;;;;;;5678347;25;20250;-48
2024/04/18 06:28:25;;;;;;;5.78;5.15;;;;;;;;;;5678211;25;20282;-47
2024/04/18 06:30:54;;;;;;;6.28;5.68;;;;;;;;;;5678235;25;20216;-48
2024/04/18 06:33:25;;;;;;;5.38;4.97;;;;;;;;;;5677822;25;20258;-49
2024/04/18 06:35:58;;;;;;;5.75;5.30;;;;;;;;;;5667829;25;20220;-48
2024/04/18 06:38:27;;;;;;;5.32;4.93;;;;;;;;;;5671963;25;20220;-48
2024/04/18 06:40:56;;;;;;;5.90;5.40;;;;;;;;;;5678078;25;20250;-48
2024/04/18 06:43:25;;;;;;;5.25;4.65;;;;;;;;;;5677982;25;20254;-49
2024/04/18 06:45:55;;;;;;;7.07;5.80;;;;;;;;;;5677794;25;20219;-49
2024/04/18 06:48:24;;;;;;;6.18;5.68;;;;;;;;;;5656134;25;20763;-50
2024/04/18 06:50:56;;;;;;;6.28;5.57;;;;;;;;;;5668214;25;20224;-50
2024/04/18 06:53:25;;;;;;;5.97;5.47;;;;;;;;;;5677603;25;20690;-48
2024/04/18 06:55:55;;;;;;;6.32;5.65;;;;;;;;;;5659698;25;20267;-50
2024/04/18 06:58:24;;;;;;;5.90;5.35;;;;;;;;;;5638574;25;20208;-51
2024/04/18 07:00:53;;;;;;;6.15;5.65;;;;;;;;;;5662277;25;20212;-53
2024/04/18 07:03:22;;;;;;;8.25;7.47;;;;;;;;;;5640651;25;20225;-47
2024/04/18 07:05:51;;;;;;;9.20;7.97;;;;;;;;;;5667480;25;20208;-50
2024/04/18 07:08:24;;;;;;;7.93;7.13;;;;;;;;;;5677235;25;20204;-51
2024/04/18 07:10:53;;;;;;;7.90;7.18;;;;;;;;;;5660039;25;20267;-50
2024/04/18 07:13:23;;;;;;;8.05;6.50;;;;;;;;;;5664142;25;20330;-50
2024/04/18 07:15:52;;;;;;;8.07;6.82;;;;;;;;;;5667398;25;20212;-48
2024/04/18 07:18:21;;;;;;;7.97;7.10;;;;;;;;;;5677393;25;20643;-48
2024/04/18 07:20:50;;;;;;;8.88;7.63;;;;;;;;;;5677132;25;20317;-50
2024/04/18 07:23:23;;;;;;;7.70;6.97;;;;;;;;;;5677355;25;20270;-48
2024/04/18 07:25:49;;;;;;;8.15;7.43;;;;;;;;;;5677290;25;20565;-49
2024/04/18 07:28:19;;;;;;;8.35;7.50;;;;;;;;;;5677321;25;20627;-49
2024/04/18 07:30:48;;;;;;;8.93;7.55;;;;;;;;;;5677036;25;20761;-53
2024/04/18 07:33:17;;;;;;;8.43;7.53;;;;;;;;;;5676957;25;20220;-50
2024/04/18 07:35:56;;;;;;;8.43;6.43;;;;;;;;;;5677331;25;20208;-49
2024/04/18 07:38:27;;;;;;;7.38;6.63;;;;;;;;;;5676969;25;20211;-48
2024/04/18 07:40:57;;;;;;;6.55;5.88;;;;;;;;;;5676887;25;20212;-50
2024/04/18 07:43:26;;;;;;;6.82;6.18;;;;;;;;;;5676746;25;20579;-46
2024/04/18 07:45:55;;;;;;;6.07;5.10;;;;;;;;;;5660773;25;20265;-47
2024/04/18 07:48:24;;;;;;;5.68;5.18;;;;;;;;;;5676843;25;20959;-48
2024/04/18 07:50:51;;;;;;;5.82;5.22;;;;;;;;;;5677008;25;20208;-50
2024/04/18 07:53:20;;;;;;;5.82;5.22;;;;;;;;;;5662273;25;20275;-51
2024/04/18 07:55:52;;;;;;;5.88;5.32;;;;;;;;;;5676537;25;20247;-49
2024/04/18 07:58:22;;;;;;;4.53;4.13;;;;;;;;;;5645767;25;20263;-50
2024/04/18 08:00:52;;;;;;;5.15;4.65;;;;;;;;;;5637859;25;20337;-47
2024/04/18 08:03:21;;;;;;;6.15;5.38;;;;;;;;;;5637790;25;20243;-46
2024/04/18 08:05:50;;;;;;;5.30;4.53;;;;;;;;;;5653705;25;20224;-45
2024/04/18 08:08:20;;;;;;;5.10;4.55;;;;;;;;;;5637695;25;20220;-48
2024/04/18 08:10:51;;;;;;;4.80;4.10;;;;;;;;;;5669736;25;20319;-50
2024/04/18 08:13:20;;;;;;;4.55;4.15;;;;;;;;;;5637550;25;20225;-47
2024/04/18 08:15:49;;;;;;;4.60;4.20;;;;;;;;;;5653659;25;20596;-51
2024/04/18 08:18:19;;;;;;;6.80;4.80;;;;;;;;;;5636421;25;20209;-48
2024/04/18 08:20:48;;;;;;;4.82;4.43;;;;;;;;;;5637415;25;20209;-47
2024/04/18 08:23:20;;;;;;;4.55;4.15;;;;;;;;;;5637298;25;20290;-49
2024/04/18 08:25:52;;;;;;;4.90;4.13;;;;;;;;;;5653511;25;20280;-49
2024/04/18 08:28:21;;;;;;;4.25;3.85;;;;;;;;;;5637435;25;20209;-48
2024/04/18 08:30:50;;;;;;;4.53;4.13;;;;;;;;;;5637653;25;20268;-46
2024/04/18 08:33:19;;;;;;;5.28;4.82;;;;;;;;;;5637303;25;20268;-50
2024/04/18 08:35:49;;;;;;;4.65;4.25;;;;;;;;;;5637448;25;20711;-52
2024/04/18 08:38:18;;;;;;;3.97;3.55;;;;;;;;;;5637312;25;20213;-50
2024/04/18 08:40:48;;;;;;;4.25;3.85;;;;;;;;;;5637303;25;20209;-48
2024/04/18 08:43:19;;;;;;;4.28;3.88;;;;;;;;;;5637527;25;20267;-52
2024/04/18 08:45:49;;;;;;;4.03;3.38;;;;;;;;;;5637649;25;20247;-48
2024/04/18 08:48:20;;;;;;;5.18;3.35;;;;;;;;;;5637262;25;20664;-49
2024/04/18 08:50:49;;;;;;;4.10;3.75;;;;;;;;;;5637109;25;20205;-49
2024/04/18 08:53:18;;;;;;;7.55;4.97;;;;;;;;;;5637183;25;20225;-50
2024/04/18 08:55:51;;;;;;;4.38;3.50;;;;;;;;;;5637360;25;20270;-50
2024/04/18 08:58:25;;;;;;;3.70;3.40;;;;;;;;;;5637555;25;20687;-51
2024/04/18 09:00:54;;;;;;;4.13;3.10;;;;;;;;;;5637177;25;20251;-49
2024/04/18 09:03:24;;;;;;;3.45;3.15;;;;;;;;;;5636973;25;20327;-48
2024/04/18 09:05:53;;;;;;;3.95;3.65;;;;;;;;;;5636988;25;20589;-50
2024/04/18 09:08:23;;;;;;;3.42;3.13;;;;;;;;;;5636926;25;20391;-49
2024/04/18 09:10:52;;;;;;;3.55;3.25;;;;;;;;;;5636848;25;20539;-50
2024/04/18 09:13:23;;;;;;;3.65;3.35;;;;;;;;;;5636645;25;20742;-49
2024/04/18 09:15:52;;;;;;;3.60;2.95;;;;;;;;;;5659759;25;20715;-49
2024/04/18 09:18:21;;;;;;;3.30;2.70;;;;;;;;;;5675411;25;20212;-52
2024/04/18 09:20:51;;;;;;;4.32;4.03;;;;;;;;;;5668770;25;20244;-49
2024/04/18 09:23:20;;;;;;;3.08;2.83;;;;;;;;;;5666571;25;20271;-48
2024/04/18 09:25:54;;;;;;;3.75;3.45;;;;;;;;;;5675151;25;20204;-51
2024/04/18 09:28:26;;;;;;;3.03;2.83;;;;;;;;;;5675014;25;20214;-51
2024/04/18 09:30:55;;;;;;;2.97;2.78;;;;;;;;;;5678075;25;20216;-50
2024/04/18 09:33:25;;;;;;;3.50;3.00;;;;;;;;;;5678919;25;20223;-49
2024/04/18 09:36:00;;;;;;;3.25;2.97;;;;;;;;;;5678699;25;20215;-49
2024/04/18 09:38:33;;;;;;;2.83;2.63;;;;;;;;;;5679210;25;20207;-48
2024/04/18 09:41:07;;;;;;;3.15;2.95;;;;;;;;;;5678871;25;20264;-49
2024/04/18 09:43:47;;;;;;;2.03;1.92;;;;;;;;;;5678820;25;20235;-45
2024/04/18 09:46:16;;;;;;;2.90;2.70;;;;;;;;;;5679028;25;20250;-48
2024/04/18 09:48:46;;;;;;;3.47;2.30;;;;;;;;;;5678750;25;20212;-49
2024/04/18 09:51:16;;;;;;;3.25;1.92;;;;;;;;;;5678920;25;20208;-49
2024/04/18 09:53:46;;;;;;;4.15;2.17;;;;;;;;;;5679071;25;20810;-49
2024/04/18 09:56:17;;;;;;;2.83;2.63;;;;;;;;;;5679031;25;20207;-49
2024/04/18 09:58:49;;;;;;;3.45;2.72;;;;;;;;;;5678974;25;20216;-47
2024/04/18 10:01:19;;;;;;;3.22;2.90;;;;;;;;;;5678541;25;20254;-48
2024/04/18 10:03:48;;;;;;;2.47;2.25;;;;;;;;;;5678975;25;20200;-49
2024/04/18 10:06:19;;;;;;;2.30;2.10;;;;;;;;;;5678415;25;20224;-51
2024/04/18 10:08:53;;;;;;;3.00;2.70;;;;;;;;;;5678839;25;20208;-50
2024/04/18 10:11:24;;;;;;;3.63;2.25;;;;;;;;;;5678677;25;20203;-47
2024/04/18 10:14:01;;;;;;;2.47;2.08;;;;;;;;;;5678601;25;20539;-48
2024/04/18 10:16:30;;;;;;;1.92;1.83;;;;;;;;;;5678393;25;20212;-48
2024/04/18 10:19:00;;;;;;;1.90;1.80;;;;;;;;;;5678300;25;20259;-50
2024/04/18 10:21:29;;;;;;;3.80;2.60;;;;;;;;;;5678399;25;20247;-48
2024/04/18 10:24:03;;;;;;;2.17;1.98;;;;;;;;;;5678292;25;20730;-47
2024/04/18 10:26:35;;;;;;;1.95;1.85;;;;;;;;;;5678275;25;20830;-49
2024/04/18 10:29:07;;;;;;;3.58;1.50;;;;;;;;;;5678153;25;20338;-48
2024/04/18 10:31:40;;;;;;;1.50;1.40;;;;;;;;;;5639595;25;20604;-48
2024/04/18 10:34:09;;;;;;;2.83;2.20;;;;;;;;;;5639079;25;20260;-47
2024/04/18 10:36:39;;;;;;;2.15;1.83;;;;;;;;;;5674524;25;20255;-50
2024/04/18 10:39:08;;;;;;;2.13;2.03;;;;;;;;;;5678018;25;20211;-50
2024/04/18 10:41:47;;;;;;;2.97;2.00;;;;;;;;;;5676805;25;20228;-49
2024/04/18 10:44:24;;;;;;;3.28;2.05;;;;;;;;;;5677766;25;20571;-52
2024/04/18 10:46:54;;;;;;;2.85;1.90;;;;;;;;;;5677865;25;20698;-48
2024/04/18 10:49:23;;;;;;;1.90;1.75;;;;;;;;;;5677854;25;20254;-50
2024/04/18 10:51:53;;;;;;;4.18;2.40;;;;;;;;;;5638881;25;20221;-47
2024/04/18 10:54:22;;;;;;;1.98;1.88;;;;;;;;;;5638884;25;20212;-48
2024/04/18 10:56:52;;;;;;;2.00;1.83;;;;;;;;;;5639240;25;20266;-50
2024/04/18 10:59:24;;;;;;;4.05;1.67;;;;;;;;;;5638833;25;20248;-49
2024/04/18 11:01:53;;;;;;;2.05;1.85;;;;;;;;;;5638471;25;20614;-51
2024/04/18 11:04:22;;;;;;;1.85;1.65;;;;;;;;;;5638861;25;20235;-50
2024/04/18 11:06:51;;;;;;;2.03;1.48;;;;;;;;;;5638909;25;20205;-48
2024/04/18 11:09:20;;;;;;;2.03;1.50;;;;;;;;;;5652763;25;20246;-48
2024/04/18 11:11:49;;;;;;;3.72;1.92;;;;;;;;;;5677505;25;20216;-47
2024/04/18 11:14:18;;;;;;;2.40;2.20;;;;;;;;;;5677584;25;20212;-51
2024/04/18 11:17:00;;;;;;;2.08;1.80;;;;;;;;;;5677330;25;20204;-52
2024/04/18 11:19:29;;;;;;;1.65;1.55;;;;;;;;;;5677547;25;20246;-50
2024/04/18 11:22:00;;;;;;;1.95;1.83;;;;;;;;;;5677224;25;20236;-47
2024/04/18 11:24:30;;;;;;;2.50;2.40;;;;;;;;;;5677456;25;20212;-50
2024/04/18 11:26:59;;;;;;;3.05;2.50;;;;;;;;;;5677469;25;20544;-51
2024/04/18 11:29:29;;;;;;;5.00;2.80;;;;;;;;;;5644716;25;20217;-49
2024/04/18 11:32:10;;;;;;;4.10;2.22;;;;;;;;;;5638202;25;20229;-48
2024/04/18 11:34:40;;;;;;;2.53;1.92;;;;;;;;;;5638259;25;20676;-51
2024/04/18 11:37:10;;;;;;;1.67;1.58;;;;;;;;;;5638272;25;20205;-49
2024/04/18 11:39:39;;;;;;;2.17;1.98;;;;;;;;;;5637901;25;20209;-49
2024/04/18 11:42:10;;;;;;;2.58;1.83;;;;;;;;;;5637961;25;20409;-51
2024/04/18 11:44:39;;;;;;;1.70;1.60;;;;;;;;;;5638174;25;20260;-51
2024/04/18 11:47:11;;;;;;;3.45;1.70;;;;;;;;;;5638081;25;20217;-49
2024/04/18 11:49:42;;;;;;;1.35;1.25;;;;;;;;;;5638039;25;20247;-49
2024/04/18 11:52:11;;;;;;;1.90;1.80;;;;;;;;;;5638091;25;20233;-48
2024/04/18 11:54:40;;;;;;;1.85;1.75;;;;;;;;;;5637869;25;20205;-48
2024/04/18 11:57:09;;;;;;;2.05;1.85;;;;;;;;;;5638190;25;20253;-48
2024/04/18 11:59:43;;;;;;;1.92;1.73;;;;;;;;;;5637839;25;20213;-48
2024/04/18 12:02:15;;;;;;;2.22;1.35;;;;;;;;;;5649531;25;20671;-48
2024/04/18 12:04:41;;;;;;;1.55;1.45;;;;;;;;;;5672394;25;20246;-48
2024/04/18 12:07:10;;;;;;;2.20;1.58;;;;;;;;;;5637705;25;20252;-46
2024/04/18 12:09:43;;;;;;;1.58;1.35;;;;;;;;;;5637751;25;20209;-49
2024/04/18 12:12:12;;;;;;;2.92;2.03;;;;;;;;;;5637607;25;20263;-51
2024/04/18 12:14:46;;;;;;;1.30;1.20;;;;;;;;;;5637946;25;20599;-50
2024/04/18 12:17:18;;;;;;;1.73;1.20;;;;;;;;;;5637640;25;20246;-53
2024/04/18 12:19:47;;;;;;;2.08;1.30;;;;;;;;;;5637663;25;20209;-50
2024/04/18 12:22:16;;;;;;;2.42;1.58;;;;;;;;;;5637499;25;20217;-46
2024/04/18 12:24:45;;;;;;;3.08;1.65;;;;;;;;;;5637350;25;20217;-48
2024/04/18 12:27:14;;;;;;;2.92;1.83;;;;;;;;;;5637398;25;20209;-49
2024/04/18 12:29:46;;;;;;;3.88;1.60;;;;;;;;;;5637517;25;20204;-48
2024/04/18 12:32:20;;;;;;;1.70;1.60;;;;;;;;;;5637422;25;20280;-50
2024/04/18 12:34:51;;;;;;;2.08;1.60;;;;;;;;;;5637356;25;20688;-48
2024/04/18 12:37:21;;;;;;;1.35;1.20;;;;;;;;;;5651161;25;20215;-49
2024/04/18 12:39:51;;;;;;;2.97;2.78;;;;;;;;;;5676225;25;20204;-48
2024/04/18 12:42:20;;;;;;;4.25;2.00;;;;;;;;;;5676129;25;20266;-48
2024/04/18 12:44:49;;;;;;;2.45;2.25;;;;;;;;;;5676112;25;20219;-52
2024/04/18 12:47:21;;;;;;;5.43;1.85;;;;;;;;;;5676125;25;20208;-53
2024/04/18 12:49:51;;;;;;;1.95;1.80;;;;;;;;;;5675843;25;20208;-48
2024/04/18 12:52:20;;;;;;;5.03;2.08;;;;;;;;;;5645370;25;20229;-48
2024/04/18 12:54:49;;;;;;;2.08;1.95;;;;;;;;;;5636866;25;20208;-47
2024/04/18 12:57:19;;;;;;;2.00;1.70;;;;;;;;;;5636812;25;20261;-49
2024/04/18 12:59:48;;;;;;;2.40;1.90;;;;;;;;;;5674206;25;20220;-49
2024/04/18 13:02:20;;;;;;;1.73;1.33;;;;;;;;;;5675569;25;20215;-48
2024/04/18 13:04:49;;;;;;;1.90;1.65;;;;;;;;;;5676735;25;20208;-49
2024/04/18 13:07:19;;;;;;;2.58;2.38;;;;;;;;;;5679326;25;20208;-48
2024/04/18 13:09:48;;;;;;;2.80;2.20;;;;;;;;;;5673999;25;20742;-48
2024/04/18 13:12:17;;;;;;;3.15;2.00;;;;;;;;;;5653707;25;20224;-48
2024/04/18 13:14:46;;;;;;;3.78;2.50;;;;;;;;;;5679318;25;20216;-49
2024/04/18 13:17:15;;;;;;;3.35;2.60;;;;;;;;;;5679305;25;20211;-51
2024/04/18 13:19:47;;;;;;;2.70;2.50;;;;;;;;;;5679057;25;20311;-52
2024/04/18 13:22:16;;;;;;;5.50;2.38;;;;;;;;;;5679358;25;20220;-48
2024/04/18 13:24:46;;;;;;;2.40;2.20;;;;;;;;;;5678978;25;20263;-52
2024/04/18 13:27:16;;;;;;;2.25;2.05;;;;;;;;;;5679262;25;20250;-49
2024/04/18 13:29:45;;;;;;;2.25;2.05;;;;;;;;;;5642649;25;20205;-50
2024/04/18 13:32:15;;;;;;;1.58;1.48;;;;;;;;;;5640190;25;20221;-47
2024/04/18 13:34:47;;;;;;;2.17;1.65;;;;;;;;;;5640095;25;20209;-47
2024/04/18 13:37:16;;;;;;;1.60;1.40;;;;;;;;;;5639928;25;20707;-51
2024/04/18 13:39:50;;;;;;;1.65;1.55;;;;;;;;;;5639855;25;20583;-49
2024/04/18 13:42:19;;;;;;;1.60;1.40;;;;;;;;;;5659450;25;20225;-50
2024/04/18 13:44:48;;;;;;;2.03;1.40;;;;;;;;;;5640123;25;20248;-49
2024/04/18 13:47:17;;;;;;;2.03;1.48;;;;;;;;;;5639962;25;20213;-49
2024/04/18 13:49:49;;;;;;;1.55;1.42;;;;;;;;;;5656053;25;20271;-47
2024/04/18 13:52:18;;;;;;;2.75;2.20;;;;;;;;;;5673879;25;20686;-49
2024/04/18 13:54:49;;;;;;;3.03;1.73;;;;;;;;;;5669176;25;20747;-50
2024/04/18 13:57:18;;;;;;;2.63;2.42;;;;;;;;;;5641796;25;20229;-50
2024/04/18 13:59:52;;;;;;;1.95;1.85;;;;;;;;;;5678603;25;20358;-50
2024/04/18 14:02:21;;;;;;;2.40;1.88;;;;;;;;;;5678363;25;20231;-51
2024/04/18 14:04:52;;;;;;;1.85;1.75;;;;;;;;;;5674021;25;20220;-51
2024/04/18 14:07:22;;;;;;;1.60;1.50;;;;;;;;;;5674341;25;20572;-48
2024/04/18 14:09:51;;;;;;;2.38;1.40;;;;;;;;;;5651790;25;20599;-51
2024/04/18 14:12:20;;;;;;;1.63;1.45;;;;;;;;;;5671153;25;20274;-48
2024/04/18 14:14:55;;;;;;;1.98;1.35;;;;;;;;;;5660824;25;20231;-50
2024/04/18 14:20:12;;;;;;;1.95;1.38;;;;;;;;;;5576982;25;20219;-52
2024/04/18 14:22:41;;;;;;;2.92;1.77;;;;;;;;;;5646847;25;20224;-48
2024/04/18 14:25:10;;;;;;;2.30;2.10;;;;;;;;;;5662249;25;20225;-50
2024/04/18 14:27:40;;;;;;;1.60;1.50;;;;;;;;;;5639062;25;20574;-51
2024/04/18 14:30:10;;;;;;;1.70;1.60;;;;;;;;;;5639483;25;20547;-50
2024/04/18 14:32:39;;;;;;;1.70;1.60;;;;;;;;;;5662626;25;20616;-51
2024/04/18 14:35:11;;;;;;;1.50;1.40;;;;;;;;;;5647480;25;20221;-50
2024/04/18 14:37:40;;;;;;;1.48;1.38;;;;;;;;;;5655751;25;20252;-49
2024/04/18 14:40:12;;;;;;;1.75;1.65;;;;;;;;;;5639224;25;20209;-49
2024/04/18 14:42:41;;;;;;;1.85;1.25;;;;;;;;;;5646823;25;20228;-48
2024/04/18 14:45:13;;;;;;;3.50;1.50;;;;;;;;;;5678174;25;20212;-50
2024/04/18 14:47:42;;;;;;;1.20;1.20;;;;;;;;;;5662059;25;20780;-50
2024/04/18 14:50:14;;;;;;;1.30;1.20;;;;;;;;;;5646320;25;20217;-48
2024/04/18 14:52:43;;;;;;;1.10;1.00;;;;;;;;;;5638781;25;20229;-50
2024/04/18 14:55:12;;;;;;;1.40;1.08;;;;;;;;;;5654981;25;20221;-51
2024/04/18 14:57:41;;;;;;;2.88;1.13;;;;;;;;;;5638970;25;20251;-49
2024/04/18 15:00:11;;;;;;;1.33;1.23;;;;;;;;;;5638781;25;20251;-49
2024/04/18 15:02:40;;;;;;;1.23;1.10;;;;;;;;;;5674137;25;20322;-50